Time;durP1;ratioP1;P1;durP2;ratioP2;P2;SDS_P1;SDS_P2;PMS_P1;PMS_P2;Temp;Humidity;BMP_temperature;BMP_pressure;BME280_temperature;BME280_humidity;BME280_pressure;Samples;Min_cycle;Max_cycle;Signal;HPM_P1;HPM_P2
2022/01/01 00:00:53;;;;;;;159.25;96.78;;;;;;;2.11;100.00;93589.78;5072398;28;20041;-84
2022/01/01 00:03:21;;;;;;;131.70;80.10;;;;;;;2.09;100.00;93584.88;5073180;28;20056;-84
2022/01/01 00:05:48;;;;;;;168.15;99.28;;;;;;;2.09;100.00;93579.03;5073030;28;20052;-84
2022/01/01 00:08:16;;;;;;;157.57;97.47;;;;;;;2.09;100.00;93582.34;5072359;28;20040;-84
2022/01/01 00:10:43;;;;;;;170.10;100.57;;;;;;;1.82;100.00;93568.06;5072166;28;20410;-84
2022/01/01 00:13:09;;;;;;;193.88;110.43;;;;;;;1.92;100.00;93581.44;5072443;28;20052;-84
2022/01/01 00:15:36;;;;;;;158.98;95.78;;;;;;;2.00;100.00;93584.03;5072179;28;20049;-84
2022/01/01 00:18:03;;;;;;;155.68;92.00;;;;;;;2.03;100.00;93572.78;5072261;28;20044;-84
2022/01/01 00:20:32;;;;;;;161.18;100.63;;;;;;;2.08;100.00;93577.44;5072030;28;20098;-84
2022/01/01 00:22:58;;;;;;;140.18;89.80;;;;;;;2.03;100.00;93575.34;5071982;28;20090;-84
2022/01/01 00:25:25;;;;;;;153.65;94.43;;;;;;;2.07;100.00;93579.16;5071679;28;20045;-84
2022/01/01 00:27:53;;;;;;;149.13;88.72;;;;;;;2.09;100.00;93572.19;5072050;28;20415;-84
2022/01/01 00:30:20;;;;;;;146.73;89.78;;;;;;;2.06;100.00;93575.03;5071841;28;20044;-84
2022/01/01 00:32:47;;;;;;;143.50;88.80;;;;;;;2.08;100.00;93569.84;5072012;28;20487;-84
2022/01/01 00:35:13;;;;;;;146.70;90.75;;;;;;;2.05;100.00;93568.41;5071703;28;20048;-84
2022/01/01 00:37:42;;;;;;;151.25;93.30;;;;;;;2.02;100.00;93572.94;5070249;28;20052;-84
2022/01/01 00:40:09;;;;;;;150.07;88.53;;;;;;;2.02;100.00;93578.00;5071723;28;20075;-84
2022/01/01 00:42:36;;;;;;;139.18;84.57;;;;;;;1.99;100.00;93584.97;5072228;28;20067;-84
2022/01/01 00:45:03;;;;;;;140.77;83.05;;;;;;;1.94;100.00;93582.06;5071899;28;20102;-84
2022/01/01 00:47:30;;;;;;;135.32;81.55;;;;;;;1.90;100.00;93572.41;5072760;28;20044;-84
2022/01/01 00:49:57;;;;;;;143.27;85.80;;;;;;;1.90;100.00;93582.53;5072144;28;20075;-84
2022/01/01 00:52:23;;;;;;;128.52;76.80;;;;;;;1.85;100.00;93563.50;5071197;28;20392;-84
2022/01/01 00:54:51;;;;;;;120.10;72.75;;;;;;;1.91;100.00;93566.38;5071268;28;20106;-84
2022/01/01 00:57:19;;;;;;;121.40;74.28;;;;;;;1.73;100.00;93567.97;5070674;28;20052;-84
2022/01/01 00:59:46;;;;;;;118.35;69.93;;;;;;;1.83;100.00;93557.78;5069737;28;20090;-84
2022/01/01 01:02:13;;;;;;;154.75;91.90;;;;;;;1.84;100.00;93559.38;5071296;28;20406;-84
2022/01/01 01:04:40;;;;;;;178.55;102.20;;;;;;;1.70;100.00;93537.09;5070833;28;20055;-84
2022/01/01 01:07:06;;;;;;;154.48;88.22;;;;;;;1.81;100.00;93549.53;5071052;28;20486;-84
2022/01/01 01:09:33;;;;;;;144.23;86.45;;;;;;;1.73;100.00;93547.72;5071328;28;20406;-84
2022/01/01 01:12:01;;;;;;;168.02;95.25;;;;;;;1.64;100.00;93550.34;5071843;28;20055;-84
2022/01/01 01:14:28;;;;;;;172.75;96.13;;;;;;;1.58;100.00;93531.47;5071086;28;20487;-84
2022/01/01 01:16:56;;;;;;;143.35;82.47;;;;;;;1.71;100.00;93539.50;5071268;28;20125;-84
2022/01/01 01:19:23;;;;;;;162.13;90.78;;;;;;;1.67;100.00;93545.78;5070985;28;20056;-84
2022/01/01 01:21:51;;;;;;;151.60;87.90;;;;;;;1.69;100.00;93543.09;5071431;28;20067;-84
2022/01/01 01:24:19;;;;;;;145.18;82.82;;;;;;;1.71;100.00;93536.94;5070975;28;20045;-84
2022/01/01 01:26:49;;;;;;;186.57;99.18;;;;;;;1.62;100.00;93545.41;5070913;28;20048;-84
2022/01/01 01:29:18;;;;;;;185.45;92.85;;;;;;;1.60;100.00;93563.31;5070881;28;20048;-84
2022/01/01 01:31:45;;;;;;;206.02;100.25;;;;;;;1.46;100.00;93553.69;5070863;28;20414;-84
2022/01/01 01:34:11;;;;;;;164.27;87.20;;;;;;;1.49;100.00;93552.59;5070597;28;20102;-84
2022/01/01 01:36:39;;;;;;;178.10;88.45;;;;;;;1.55;100.00;93560.41;5070952;28;20407;-84
2022/01/01 01:39:06;;;;;;;161.48;87.68;;;;;;;1.49;100.00;93552.59;5070853;28;20052;-84
2022/01/01 01:41:33;;;;;;;167.85;92.50;;;;;;;1.53;100.00;93543.78;5070661;28;20373;-84
2022/01/01 01:44:02;;;;;;;156.68;85.55;;;;;;;1.67;100.00;93555.13;5070537;28;20529;-84
2022/01/01 01:46:30;;;;;;;159.05;84.53;;;;;;;1.72;100.00;93566.41;5070664;28;20083;-84
2022/01/01 01:48:57;;;;;;;162.02;88.80;;;;;;;1.66;100.00;93559.38;5070563;28;20044;-84
2022/01/01 01:51:24;;;;;;;180.10;91.40;;;;;;;1.71;100.00;93562.28;5071682;28;20056;-84
2022/01/01 01:53:51;;;;;;;159.35;84.55;;;;;;;1.65;100.00;93554.47;5068117;28;20474;-84
2022/01/01 01:56:18;;;;;;;149.70;79.47;;;;;;;1.66;100.00;93559.38;5050347;28;20102;-84
2022/01/01 01:58:45;;;;;;;151.43;79.18;;;;;;;1.57;100.00;93542.56;5050907;28;20060;-84
2022/01/01 02:01:25;;;;;;;131.07;71.20;;;;;;;1.69;100.00;93556.56;5050196;28;20045;-84
2022/01/01 02:03:56;;;;;;;118.28;62.85;;;;;;;1.67;100.00;93562.72;5050472;28;20441;-84
2022/01/01 02:06:24;;;;;;;97.03;50.28;;;;;;;1.62;100.00;93552.25;5050442;28;20049;-84
2022/01/01 02:08:52;;;;;;;71.53;40.13;;;;;;;1.59;100.00;93553.31;5050486;28;20049;-84
2022/01/01 02:11:21;;;;;;;77.63;43.65;;;;;;;1.56;100.00;93546.81;5050193;28;20063;-84
2022/01/01 02:14:02;;;;;;;87.13;47.25;;;;;;;1.55;100.00;93546.94;5049949;28;20045;-84
2022/01/01 02:16:49;;;;;;;59.88;34.40;;;;;;;1.51;100.00;93550.72;5050121;28;20506;-84
2022/01/01 02:19:24;;;;;;;64.43;34.35;;;;;;;1.48;100.00;93554.31;5050211;28;20053;-84
2022/01/01 02:21:54;;;;;;;75.70;37.58;;;;;;;1.48;100.00;93551.00;5050255;28;20091;-84
2022/01/01 02:24:22;;;;;;;89.53;42.65;;;;;;;1.46;100.00;93554.50;5050550;28;20053;-84
2022/01/01 02:26:48;;;;;;;74.50;39.95;;;;;;;1.49;100.00;93548.34;5050537;28;20048;-84
2022/01/01 02:29:15;;;;;;;84.57;43.20;;;;;;;1.51;100.00;93559.09;5050077;28;20052;-84
2022/01/01 02:31:42;;;;;;;110.55;54.97;;;;;;;1.27;100.00;93521.72;5050460;28;20045;-84
2022/01/01 02:34:11;;;;;;;104.40;52.10;;;;;;;1.49;100.00;93552.59;5050511;28;20083;-84
2022/01/01 02:36:40;;;;;;;123.03;57.25;;;;;;;1.50;100.00;93547.41;5050079;28;20053;-84
2022/01/01 02:39:14;;;;;;;112.10;51.55;;;;;;;1.45;100.00;93532.63;5050069;28;20052;-84
2022/01/01 02:41:41;;;;;;;106.32;49.95;;;;;;;1.50;100.00;93547.41;5051705;28;20075;-84
2022/01/01 02:44:08;;;;;;;99.28;48.53;;;;;;;1.50;100.00;93544.88;5070133;28;20047;-84
2022/01/01 02:46:36;;;;;;;88.53;42.00;;;;;;;1.53;100.00;93549.63;5070084;28;20053;-84
2022/01/01 02:49:04;;;;;;;78.63;36.58;;;;;;;1.40;100.00;93523.91;5069702;28;20048;-84
2022/01/01 02:51:31;;;;;;;71.15;32.28;;;;;;;1.50;100.00;93537.28;5070024;28;20048;-84
2022/01/01 02:53:58;;;;;;;69.47;32.42;;;;;;;1.43;100.00;93541.34;5070368;28;20049;-84
2022/01/01 02:56:28;;;;;;;58.65;29.38;;;;;;;1.37;100.00;93545.22;5069797;28;20513;-84
2022/01/01 02:58:55;;;;;;;67.03;31.90;;;;;;;1.30;100.00;93546.75;5069671;28;20041;-85
2022/01/01 03:01:22;;;;;;;63.50;30.60;;;;;;;1.11;100.00;93550.22;5073165;28;20475;-84
2022/01/01 03:03:49;;;;;;;72.00;35.22;;;;;;;1.18;100.00;93546.16;5073337;28;20048;-84
2022/01/01 03:06:19;;;;;;;76.85;35.97;;;;;;;1.20;100.00;93539.22;5073596;28;20448;-85
2022/01/01 03:08:47;;;;;;;82.78;42.35;;;;;;;1.17;100.00;93527.63;5073110;28;20223;-85
2022/01/01 03:11:15;;;;;;;102.05;48.83;;;;;;;1.15;100.00;93526.22;5073513;28;20473;-85
2022/01/01 03:13:43;;;;;;;117.13;54.20;;;;;;;1.18;100.00;93530.97;5073280;28;20068;-85
2022/01/01 03:16:10;;;;;;;144.20;62.55;;;;;;;1.24;100.00;93535.47;5073108;28;20487;-85
2022/01/01 03:18:38;;;;;;;141.10;62.10;;;;;;;1.07;100.00;93504.16;5073147;28;20604;-85
2022/01/01 03:21:05;;;;;;;200.15;81.00;;;;;;;1.16;100.00;93521.00;5073311;28;20044;-85
2022/01/01 03:23:32;;;;;;;125.35;61.83;;;;;;;1.13;100.00;93508.66;5073525;28;20056;-85
2022/01/01 03:25:59;;;;;;;137.77;67.63;;;;;;;1.11;100.00;93507.19;5073209;28;20045;-85
2022/01/01 03:28:27;;;;;;;140.30;69.30;;;;;;;0.93;100.00;93513.03;5073211;28;20040;-85
2022/01/01 03:30:55;;;;;;;203.13;95.18;;;;;;;1.03;100.00;93512.97;5072988;28;20098;-85
2022/01/01 03:33:22;;;;;;;158.40;78.70;;;;;;;0.92;100.00;93512.22;5073233;28;20052;-85
2022/01/01 03:35:49;;;;;;;128.05;68.60;;;;;;;0.70;100.00;93525.28;5073149;28;20816;-85
2022/01/01 03:38:16;;;;;;;128.63;69.38;;;;;;;0.62;100.00;93475.41;5072908;28;20059;-85
2022/01/01 03:40:43;;;;;;;124.20;63.72;;;;;;;0.70;100.00;93520.22;5072855;28;20048;-85
2022/01/01 03:43:10;;;;;;;131.45;69.63;;;;;;;0.58;100.00;93514.53;5072528;28;20052;-85
2022/01/01 03:45:37;;;;;;;168.93;88.90;;;;;;;0.85;100.00;93523.88;5072805;28;20071;-85
2022/01/01 03:48:06;;;;;;;221.88;99.85;;;;;;;0.28;100.00;93527.31;5072405;28;20143;-85
2022/01/01 03:50:33;;;;;;;173.65;82.88;;;;;;;0.31;100.00;93516.94;5072775;28;20135;-85
2022/01/01 03:53:00;;;;;;;131.85;69.13;;;;;;;0.38;100.00;93512.13;5072493;28;20399;-85
2022/01/01 03:55:27;;;;;;;142.18;73.57;;;;;;;0.38;100.00;93520.47;5072510;28;20098;-85
2022/01/01 03:57:54;;;;;;;128.20;71.82;;;;;;;0.59;100.00;93514.41;5072409;28;20098;-85
2022/01/01 04:00:20;;;;;;;140.32;74.70;;;;;;;0.68;100.00;93496.81;5072487;28;20047;-85
2022/01/01 04:02:47;;;;;;;141.07;73.40;;;;;;;0.92;100.00;93494.53;5072357;28;20048;-85
2022/01/01 04:05:15;;;;;;;163.30;87.80;;;;;;;1.02;100.00;93493.69;5072332;28;20052;-85
2022/01/01 04:07:42;;;;;;;160.10;89.93;;;;;;;1.04;100.00;93501.91;5072415;28;20044;-85
2022/01/01 04:10:10;;;;;;;161.93;87.50;;;;;;;1.15;100.00;93480.66;5072242;28;20415;-85
2022/01/01 04:12:37;;;;;;;190.48;97.88;;;;;;;0.90;100.00;93472.84;5071955;28;20041;-85
2022/01/01 04:15:05;;;;;;;224.07;115.07;;;;;;;0.61;100.00;93510.00;5071931;28;20044;-85
2022/01/01 04:17:35;;;;;;;201.60;106.28;;;;;;;0.78;100.00;93500.88;5071920;28;20106;-85
2022/01/01 04:20:04;;;;;;;208.93;105.45;;;;;;;0.38;100.00;93495.22;5071970;28;20080;-85
2022/01/01 04:22:32;;;;;;;168.13;90.15;;;;;;;0.51;100.00;93489.06;5071985;28;20548;-85
2022/01/01 04:24:59;;;;;;;198.18;104.97;;;;;;;0.74;100.00;93484.38;5071795;28;20044;-85
2022/01/01 04:27:26;;;;;;;199.40;104.88;;;;;;;0.90;100.00;93483.78;5071795;28;20047;-85
2022/01/01 04:29:53;;;;;;;192.30;103.75;;;;;;;0.91;100.00;93472.72;5072292;28;20052;-86
2022/01/01 04:32:20;;;;;;;182.07;102.07;;;;;;;1.10;100.00;93485.38;5071911;28;20518;-85
2022/01/01 04:34:47;;;;;;;177.98;97.72;;;;;;;1.13;100.00;93487.59;5071829;28;20048;-85
2022/01/01 04:37:15;;;;;;;178.35;101.28;;;;;;;1.19;100.00;93480.22;5071532;28;20044;-85
2022/01/01 04:39:43;;;;;;;164.93;96.25;;;;;;;1.27;100.00;93488.81;5071628;28;21163;-85
2022/01/01 04:42:10;;;;;;;165.82;99.97;;;;;;;1.32;100.00;93479.88;5071795;28;20049;-85
2022/01/01 04:44:37;;;;;;;163.35;97.55;;;;;;;1.41;100.00;93490.03;5071749;28;20053;-85
2022/01/01 04:47:05;;;;;;;177.02;103.07;;;;;;;0.79;100.00;93499.94;5071529;28;20056;-85
2022/01/01 04:49:31;;;;;;;188.68;114.30;;;;;;;0.99;100.00;93466.13;5071176;28;20060;-85
2022/01/01 04:51:59;;;;;;;173.77;102.40;;;;;;;1.06;100.00;93464.59;5071280;28;20049;-85
2022/01/01 04:54:26;;;;;;;176.98;102.43;;;;;;;0.26;100.00;93461.78;5071456;28;20383;-85
2022/01/01 04:56:54;;;;;;;149.00;89.22;;;;;;;0.61;100.00;93468.78;5071268;28;20049;-85
2022/01/01 04:59:21;;;;;;;165.57;97.40;;;;;;;0.74;100.00;93491.19;5071297;28;20048;-85
2022/01/01 05:01:48;;;;;;;154.20;85.75;;;;;;;0.73;100.00;93476.94;5071061;28;20052;-85
2022/01/01 05:04:15;;;;;;;147.82;85.70;;;;;;;0.91;100.00;93482.81;5071048;28;20053;-85
2022/01/01 05:06:42;;;;;;;134.32;78.82;;;;;;;0.90;100.00;93458.47;5071177;28;20049;-85
2022/01/01 05:09:09;;;;;;;132.50;76.03;;;;;;;1.04;100.00;93469.81;5071285;28;20048;-85
2022/01/01 05:11:36;;;;;;;139.30;78.28;;;;;;;1.03;100.00;93470.75;5071263;28;20117;-85
2022/01/01 05:14:04;;;;;;;134.60;78.30;;;;;;;1.12;100.00;93484.28;5071165;28;20052;-85
2022/01/01 05:16:31;;;;;;;136.30;78.45;;;;;;;0.94;100.00;93471.63;5070795;28;20495;-85
2022/01/01 05:18:58;;;;;;;131.88;74.45;;;;;;;0.95;100.00;93487.59;5070898;28;20052;-85
2022/01/01 05:21:27;;;;;;;119.63;63.50;;;;;;;0.50;100.00;93495.84;5070946;28;21044;-85
2022/01/01 05:23:53;;;;;;;126.53;73.10;;;;;;;0.76;100.00;93480.00;5070456;28;20044;-85
2022/01/01 05:26:20;;;;;;;109.47;66.22;;;;;;;0.92;100.00;93489.47;5071093;28;20048;-85
2022/01/01 05:28:49;;;;;;;115.57;66.75;;;;;;;0.75;100.00;93500.38;5071005;28;20048;-85
2022/01/01 05:31:17;;;;;;;116.68;69.75;;;;;;;0.76;100.00;93497.69;5070715;28;20091;-85
2022/01/01 05:33:44;;;;;;;116.15;72.10;;;;;;;0.81;100.00;93489.69;5070593;28;20063;-85
2022/01/01 05:36:11;;;;;;;134.48;83.35;;;;;;;0.91;100.00;93495.47;5070463;28;20048;-85
2022/01/01 05:38:38;;;;;;;143.35;88.50;;;;;;;1.01;100.00;93514.81;5070666;28;20143;-85
2022/01/01 05:41:04;;;;;;;166.23;99.63;;;;;;;0.74;100.00;93514.72;5070898;28;20121;-85
2022/01/01 05:43:31;;;;;;;162.23;97.32;;;;;;;0.78;100.00;93510.19;5070834;28;20044;-85
2022/01/01 05:45:58;;;;;;;152.00;93.78;;;;;;;0.88;100.00;93525.31;5069667;28;20061;-85
2022/01/01 05:48:26;;;;;;;170.65;99.40;;;;;;;0.87;100.00;93516.13;5069057;28;20109;-85
2022/01/01 05:50:53;;;;;;;167.23;95.97;;;;;;;0.91;100.00;93551.13;5069790;28;20045;-85
2022/01/01 05:53:21;;;;;;;177.52;98.50;;;;;;;0.93;100.00;93528.22;5069679;28;20049;-85
2022/01/01 05:55:48;;;;;;;195.93;100.38;;;;;;;0.84;100.00;93536.66;5069878;28;20098;-85
2022/01/01 05:58:16;;;;;;;172.15;90.40;;;;;;;0.96;100.00;93509.44;5070016;28;20053;-84
2022/01/01 06:00:43;;;;;;;191.52;98.97;;;;;;;0.93;100.00;93545.91;5069594;28;20048;-85
2022/01/01 06:03:10;;;;;;;169.30;92.18;;;;;;;0.95;100.00;93520.47;5070051;28;20513;-84
2022/01/01 06:05:38;;;;;;;200.48;101.10;;;;;;;0.72;100.00;93544.44;5069662;28;20441;-84
2022/01/01 06:08:05;;;;;;;197.93;101.25;;;;;;;0.83;100.00;93494.59;5070119;28;20049;-84
2022/01/01 06:10:32;;;;;;;221.63;100.00;;;;;;;0.29;100.00;93520.53;5069484;28;20045;-84
2022/01/01 06:12:59;;;;;;;191.52;93.55;;;;;;;0.51;100.00;93514.34;5068584;28;20423;-84
2022/01/01 06:15:26;;;;;;;173.15;87.88;;;;;;;0.85;100.00;93528.13;5068960;28;20049;-84
2022/01/01 06:17:53;;;;;;;188.85;92.07;;;;;;;1.00;100.00;93531.75;5070152;28;20542;-85
2022/01/01 06:20:20;;;;;;;185.15;94.40;;;;;;;1.15;100.00;93523.69;5070657;28;20059;-84
2022/01/01 06:22:48;;;;;;;173.23;89.65;;;;;;;1.25;100.00;93516.78;5069775;28;20040;-84
2022/01/01 06:25:15;;;;;;;200.60;95.43;;;;;;;1.38;100.00;93536.69;5069111;28;20479;-84
2022/01/01 06:27:42;;;;;;;169.27;84.50;;;;;;;1.42;100.00;93524.53;5069477;28;20052;-84
2022/01/01 06:30:10;;;;;;;171.98;86.07;;;;;;;1.52;100.00;93537.91;5069259;28;20044;-84
2022/01/01 06:32:37;;;;;;;180.13;91.80;;;;;;;1.32;100.00;93525.41;5069404;28;20036;-84
2022/01/01 06:35:05;;;;;;;171.23;85.50;;;;;;;1.48;100.00;93536.59;5070577;28;20452;-84
2022/01/01 06:37:31;;;;;;;146.90;79.90;;;;;;;1.43;100.00;93516.78;5076325;28;20041;-84
2022/01/01 06:40:00;;;;;;;155.93;78.75;;;;;;;1.62;100.00;93527.69;5069801;28;20056;-83
2022/01/01 06:42:26;;;;;;;204.90;80.75;;;;;;;1.64;100.00;93541.03;5073052;28;20082;-84
2022/01/01 06:44:53;;;;;;;146.23;74.90;;;;;;;1.45;100.00;93555.41;5073964;28;20410;-83
2022/01/01 06:47:20;;;;;;;144.65;73.82;;;;;;;1.59;100.00;93554.09;5073475;28;20086;-84
2022/01/01 06:49:47;;;;;;;148.57;74.03;;;;;;;1.38;100.00;93538.44;5075438;28;20044;-83
2022/01/01 06:52:14;;;;;;;427.08;123.78;;;;;;;1.53;100.00;93549.63;5082461;28;20092;-83
2022/01/01 06:54:40;;;;;;;345.33;134.10;;;;;;;1.46;100.00;93534.25;5087725;28;20044;-83
2022/01/01 06:57:09;;;;;;;296.13;123.88;;;;;;;1.52;100.00;93547.25;5077658;28;20048;-83
2022/01/01 06:59:35;;;;;;;215.38;91.15;;;;;;;1.50;100.00;93549.94;5073711;28;20048;-83
2022/01/01 07:02:02;;;;;;;187.77;94.28;;;;;;;1.61;100.00;93541.31;5073525;28;20469;-84
2022/01/01 07:04:29;;;;;;;190.13;95.47;;;;;;;1.60;100.00;93538.00;5073743;28;20048;-84
2022/01/01 07:06:56;;;;;;;205.85;101.50;;;;;;;1.81;100.00;93549.53;5088372;28;20402;-83
2022/01/01 07:09:23;;;;;;;206.90;102.55;;;;;;;1.81;100.00;93531.78;5093884;28;20093;-84
2022/01/01 07:11:50;;;;;;;196.38;98.20;;;;;;;1.95;100.00;93540.59;5093667;28;20056;-84
2022/01/01 07:14:21;;;;;;;233.73;108.70;;;;;;;1.65;100.00;93545.13;5092155;28;20044;-83
2022/01/01 07:16:48;;;;;;;227.25;107.28;;;;;;;1.67;100.00;93550.84;5073479;28;20091;-83
2022/01/01 07:19:14;;;;;;;180.93;90.88;;;;;;;1.52;100.00;93544.72;5073165;28;20388;-83
2022/01/01 07:21:41;;;;;;;210.02;92.68;;;;;;;1.60;100.00;93543.06;5073607;28;20506;-83
2022/01/01 07:24:08;;;;;;;162.32;82.97;;;;;;;1.41;100.00;93546.53;5073640;28;20044;-84
2022/01/01 07:26:35;;;;;;;170.15;81.03;;;;;;;1.54;100.00;93547.91;5073380;28;20052;-84
2022/01/01 07:29:02;;;;;;;156.38;79.55;;;;;;;1.52;100.00;93548.03;5073047;28;20049;-84
2022/01/01 07:31:30;;;;;;;150.27;74.57;;;;;;;1.60;100.00;93553.19;5072936;28;20049;-83
2022/01/01 07:33:57;;;;;;;149.82;81.45;;;;;;;1.67;100.00;93532.34;5073158;28;20052;-84
2022/01/01 07:36:24;;;;;;;180.73;90.60;;;;;;;1.73;100.00;93550.25;5073118;28;20050;-83
2022/01/01 07:38:51;;;;;;;162.52;84.80;;;;;;;1.90;100.00;93554.66;5072787;28;20049;-83
2022/01/01 07:41:17;;;;;;;161.05;71.38;;;;;;;1.62;100.00;93542.88;5072799;28;20774;-83
2022/01/01 07:43:44;;;;;;;162.25;84.38;;;;;;;1.90;100.00;93563.03;5072793;28;20491;-84
2022/01/01 07:46:11;;;;;;;172.35;90.65;;;;;;;2.08;100.00;93552.88;5072513;28;20048;-83
2022/01/01 07:48:39;;;;;;;162.25;83.35;;;;;;;2.23;100.00;93565.00;5072609;28;20059;-84
2022/01/01 07:51:06;;;;;;;154.73;86.00;;;;;;;2.34;100.00;93557.16;5072433;28;20049;-83
2022/01/01 07:53:33;;;;;;;158.57;84.07;;;;;;;2.56;100.00;93549.16;5072737;28;20055;-84
2022/01/01 07:56:00;;;;;;;145.95;83.75;;;;;;;2.64;100.00;93544.91;5073008;28;20102;-84
2022/01/01 07:58:27;;;;;;;161.65;89.18;;;;;;;2.84;100.00;93554.84;5076238;28;20544;-84
2022/01/01 08:00:54;;;;;;;156.73;89.68;;;;;;;2.97;100.00;93543.47;5072683;28;20554;-85
2022/01/01 08:03:21;;;;;;;182.52;98.18;;;;;;;3.15;100.00;93548.44;5072086;28;20483;-85
2022/01/01 08:05:49;;;;;;;207.15;115.55;;;;;;;3.32;100.00;93549.25;5074115;28;20052;-83
2022/01/01 08:08:23;;;;;;;202.13;107.10;;;;;;;3.36;100.00;93539.56;5072283;28;20491;-84
2022/01/01 08:10:50;;;;;;;188.18;103.55;;;;;;;3.44;100.00;93539.59;5072579;28;20079;-84
2022/01/01 08:13:24;;;;;;;161.43;87.70;;;;;;;3.38;100.00;93517.34;5072323;28;20041;-84
2022/01/01 08:15:52;;;;;;;155.30;84.97;;;;;;;3.44;100.00;93531.97;5072223;28;20166;-84
2022/01/01 08:18:20;;;;;;;150.00;84.30;;;;;;;3.59;100.00;93548.16;5071848;28;20052;-84
2022/01/01 08:20:49;;;;;;;127.45;73.93;;;;;;;3.56;100.00;93538.31;5072176;28;20044;-84
2022/01/01 08:23:16;;;;;;;144.25;80.10;;;;;;;3.68;100.00;93540.53;5072283;28;20052;-84
2022/01/01 08:25:43;;;;;;;146.20;81.28;;;;;;;3.75;100.00;93561.81;5072093;28;20134;-85
2022/01/01 08:28:10;;;;;;;144.95;83.18;;;;;;;3.82;100.00;93550.06;5072015;28;20482;-85
2022/01/01 08:30:37;;;;;;;146.75;83.22;;;;;;;3.77;100.00;93561.66;5071916;28;20080;-84
2022/01/01 08:33:04;;;;;;;138.82;76.47;;;;;;;3.92;100.00;93544.81;5071957;28;20053;-84
2022/01/01 08:35:42;;;;;;;142.43;78.95;;;;;;;3.74;100.00;93514.50;5072049;28;20041;-84
2022/01/01 08:38:10;;;;;;;137.70;80.47;;;;;;;3.92;100.00;93533.84;5072477;28;20056;-84
2022/01/01 08:40:37;;;;;;;139.10;80.13;;;;;;;4.11;100.00;93543.69;5071558;28;20052;-84
2022/01/01 08:43:04;;;;;;;142.18;85.28;;;;;;;4.24;100.00;93550.03;5071765;28;20118;-84
2022/01/01 08:45:31;;;;;;;115.90;69.13;;;;;;;4.26;100.00;93548.91;5071389;28;20063;-85
2022/01/01 08:47:58;;;;;;;108.32;63.80;;;;;;;4.36;100.00;93538.53;5069206;28;20475;-84
2022/01/01 08:50:25;;;;;;;116.53;69.10;;;;;;;4.51;100.00;93545.50;5071552;28;20060;-85
2022/01/01 08:52:52;;;;;;;124.05;71.93;;;;;;;4.72;100.00;93557.69;5071318;28;20048;-85
2022/01/01 08:55:20;;;;;;;124.20;72.68;;;;;;;4.77;100.00;93552.13;5072561;28;20118;-85
2022/01/01 08:57:47;;;;;;;153.40;84.65;;;;;;;4.97;100.00;93570.31;5068926;28;20475;-85
2022/01/01 09:00:15;;;;;;;154.30;90.20;;;;;;;5.16;100.00;93573.41;5072474;28;20052;-85
2022/01/01 09:02:42;;;;;;;153.48;91.57;;;;;;;5.30;100.00;93556.63;5072676;28;20055;-84
2022/01/01 09:05:10;;;;;;;162.57;94.53;;;;;;;5.49;100.00;93560.50;5072771;28;20049;-85
2022/01/01 09:07:37;;;;;;;153.70;95.60;;;;;;;5.67;100.00;93562.75;5071492;28;20056;-85
2022/01/01 09:10:06;;;;;;;134.73;86.20;;;;;;;5.79;100.00;93547.06;5071577;28;20053;-84
2022/01/01 09:12:34;;;;;;;139.38;82.97;;;;;;;6.00;100.00;93548.97;5071569;28;20052;-84
2022/01/01 09:15:01;;;;;;;138.77;84.13;;;;;;;6.23;100.00;93571.09;5071702;28;20045;-85
2022/01/01 09:17:28;;;;;;;128.77;80.35;;;;;;;6.43;100.00;93563.72;5071886;28;20053;-85
2022/01/01 09:19:55;;;;;;;128.93;80.38;;;;;;;6.66;100.00;93575.63;5073602;28;20403;-85
2022/01/01 09:22:22;;;;;;;133.93;82.28;;;;;;;6.79;100.00;93554.59;5071392;28;20041;-85
2022/01/01 09:24:49;;;;;;;117.03;70.35;;;;;;;7.13;100.00;93570.31;5071180;28;20055;-84
2022/01/01 09:27:16;;;;;;;110.25;65.75;;;;;;;7.29;100.00;93557.34;5071623;28;20058;-85
2022/01/01 09:29:44;;;;;;;78.57;42.95;;;;;;;7.64;100.00;93577.13;5071509;28;20078;-84
2022/01/01 09:32:11;;;;;;;54.67;32.80;;;;;;;7.93;100.00;93583.13;5071412;28;20052;-85
2022/01/01 09:34:38;;;;;;;38.70;23.63;;;;;;;8.21;100.00;93586.66;5071280;28;20051;-85
2022/01/01 09:37:05;;;;;;;32.17;19.50;;;;;;;8.49;100.00;93580.75;5070964;28;20453;-85
2022/01/01 09:39:32;;;;;;;26.55;15.32;;;;;;;8.73;100.00;93581.31;5070956;28;20048;-84
2022/01/01 09:42:02;;;;;;;19.52;11.27;;;;;;;9.04;100.00;93583.47;5071191;28;20134;-84
2022/01/01 09:44:32;;;;;;;16.52;9.32;;;;;;;9.22;100.00;93574.47;5072721;28;20051;-84
2022/01/01 09:47:01;;;;;;;13.73;6.95;;;;;;;9.39;100.00;93585.16;5072295;28;20098;-85
2022/01/01 09:49:28;;;;;;;14.98;7.43;;;;;;;9.36;100.00;93576.06;5070870;28;20044;-85
2022/01/01 09:51:55;;;;;;;16.60;8.88;;;;;;;9.56;100.00;93593.31;5070715;28;20056;-85
2022/01/01 09:54:21;;;;;;;25.05;10.75;;;;;;;9.69;100.00;93596.88;5070824;28;20048;-85
2022/01/01 09:56:48;;;;;;;25.90;10.02;;;;;;;9.72;100.00;93594.72;5071154;28;20076;-85
2022/01/01 09:59:15;;;;;;;29.88;11.65;;;;;;;9.66;100.00;93576.72;5071012;28;20048;-85
2022/01/01 10:01:42;;;;;;;30.08;13.20;;;;;;;9.57;100.00;93556.41;5071352;28;20384;-85
2022/01/01 10:04:15;;;;;;;51.40;23.35;;;;;;;9.83;100.00;93595.13;5071044;28;20053;-85
2022/01/01 10:06:43;;;;;;;42.22;15.95;;;;;;;9.88;100.00;93592.78;5070399;28;20484;-83
2022/01/01 10:09:13;;;;;;;69.65;25.42;;;;;;;9.79;100.00;93584.47;5071965;28;20051;-84
2022/01/01 10:11:40;;;;;;;41.38;16.20;;;;;;;9.92;100.00;93578.56;5074866;28;20052;-84
2022/01/01 10:14:08;;;;;;;47.63;15.70;;;;;;;9.96;100.00;93584.09;5074725;28;20098;-84
2022/01/01 10:16:41;;;;;;;51.50;21.80;;;;;;;9.94;100.00;93588.63;5074704;28;20427;-84
2022/01/01 10:19:09;;;;;;;57.22;27.67;;;;;;;9.98;100.00;93588.03;5075496;28;20051;-86
2022/01/01 10:21:42;;;;;;;44.25;21.50;;;;;;;9.97;100.00;93572.84;5077078;28;20067;-85
2022/01/01 10:24:13;;;;;;;36.65;18.33;;;;;;;10.12;100.00;93593.97;5074873;28;20132;-85
2022/01/01 10:29:26;;;;;;;44.75;23.27;;;;;;;10.27;100.00;93591.22;5074461;28;20062;-85
2022/01/01 10:31:58;;;;;;;99.00;45.90;;;;;;;10.37;100.00;93580.53;5074234;28;20079;-85
2022/01/01 10:34:27;;;;;;;51.58;24.73;;;;;;;10.48;100.00;93586.09;5074170;28;20040;-85
2022/01/01 10:36:55;;;;;;;35.67;17.42;;;;;;;10.41;100.00;93583.50;5074307;28;20162;-85
2022/01/01 10:39:23;;;;;;;23.55;11.25;;;;;;;10.29;100.00;93555.84;5074049;28;20056;-85
2022/01/01 10:41:52;;;;;;;26.63;11.02;;;;;;;10.29;100.00;93573.81;5074026;28;20445;-85
2022/01/01 10:44:27;;;;;;;37.35;17.73;;;;;;;10.41;100.00;93574.00;5073968;28;20121;-85
2022/01/01 10:46:54;;;;;;;32.47;13.52;;;;;;;10.42;100.00;93575.59;5074183;28;20048;-86
2022/01/01 10:52:23;;;;;;;36.83;18.37;;;;;;;10.53;100.00;93551.13;5062779;28;20568;-85
2022/01/01 10:54:55;;;;;;;26.13;12.95;;;;;;;10.74;100.00;93569.84;5074572;28;20281;-85
2022/01/01 10:57:24;;;;;;;33.95;15.32;;;;;;;11.02;100.00;93573.91;5071762;28;20095;-85
2022/01/01 11:00:17;;;;;;;34.33;14.93;;;;;;;11.21;100.00;93567.13;5074166;28;20052;-86
2022/01/01 11:02:45;;;;;;;40.45;13.40;;;;;;;11.22;100.00;93558.41;5073713;28;20044;-84
2022/01/01 11:05:14;;;;;;;22.85;9.13;;;;;;;11.44;100.00;93570.97;5073895;28;20048;-84
2022/01/01 11:07:51;;;;;;;13.75;5.43;;;;;;;11.50;100.00;93567.56;5073749;28;20153;-83
2022/01/01 11:10:20;;;;;;;21.20;6.57;;;;;;;11.43;100.00;93564.25;5073639;28;20102;-84
2022/01/01 11:12:47;;;;;;;13.73;5.75;;;;;;;11.18;97.17;93571.88;5073430;28;20101;-84
2022/01/01 11:15:15;;;;;;;9.05;3.30;;;;;;;11.13;99.93;93567.34;5073422;28;20044;-85
2022/01/01 11:17:43;;;;;;;12.23;5.40;;;;;;;11.12;100.00;93572.69;5073535;28;20059;-83